Time;durP1;ratioP1;P1;durP2;ratioP2;P2;SDS_P1;SDS_P2;PMS_P1;PMS_P2;Temp;Humidity;BMP_temperature;BMP_pressure;BME280_temperature;BME280_humidity;BME280_pressure;Samples;Min_cycle;Max_cycle;Signal;HPM_P1;HPM_P2
2023/01/29 00:01:29;;;;;;;;;;;;;;;;;;5067215;28;20010;-83
2023/01/29 00:03:54;;;;;;;;;;;;;;;;;;5073224;28;19930;-83
2023/01/29 00:06:19;;;;;;;;;;;;;;;;;;5065408;28;19978;-84
2023/01/29 00:08:45;;;;;;;;;;;;;;;;;;5081294;28;19919;-83
2023/01/29 00:11:11;;;;;;;;;;;;;;;;;;5068751;28;19919;-84
2023/01/29 00:13:36;;;;;;;;;;;;;;;;;;5069319;28;19963;-84
2023/01/29 00:16:01;;;;;;;;;;;;;;;;;;5067887;28;19912;-82
2023/01/29 00:18:26;;;;;;;;;;;;;;;;;;5062472;28;19921;-82
2023/01/29 00:20:51;;;;;;;;;;;;;;;;;;5069825;28;19918;-83
2023/01/29 00:23:17;;;;;;;;;;;;;;;;;;5070941;28;20368;-83
2023/01/29 00:25:42;;;;;;;;;;;;;;;;;;5084800;28;20440;-83
2023/01/29 00:28:07;;;;;;;;;;;;;;;;;;5095323;28;19912;-84
2023/01/29 00:30:32;;;;;;;;;;;;;;;;;;5072162;28;20368;-82
2023/01/29 00:32:57;;;;;;;;;;;;;;;;;;5075542;28;19912;-83
2023/01/29 00:35:22;;;;;;;;;;;;;;;;;;5090880;28;19908;-83
2023/01/29 00:37:47;;;;;;;;;;;;;;;;;;5066318;28;20009;-83
2023/01/29 00:40:12;;;;;;;;;;;;;;;;;;5082977;28;19916;-83
2023/01/29 00:45:22;;;;;;;;;;;;;;;;;;5090437;28;19919;-83
2023/01/29 00:47:47;;;;;;;;;;;;;;;;;;5065808;28;19913;-83
2023/01/29 00:50:12;;;;;;;;;;;;;;;;;;5089490;28;19919;-83
2023/01/29 00:52:39;;;;;;;;;;;;;;;;;;5068313;28;19915;-83
2023/01/29 00:55:04;;;;;;;;;;;;;;;;;;5088766;28;20359;-83
2023/01/29 00:57:30;;;;;;;;;;;;;;;;;;5089931;28;19912;-84
2023/01/29 00:59:55;;;;;;;;;;;;;;;;;;5067842;28;19915;-83
2023/01/29 01:05:06;;;;;;;;;;;;;;;;;;5092648;28;19931;-83
2023/01/29 01:07:31;;;;;;;;;;;;;;;;;;5057734;28;19916;-83
2023/01/29 01:12:40;;;;;;;;;;;;;;;;;;5084631;28;19927;-82
2023/01/29 01:15:05;;;;;;;;;;;;;;;;;;5093170;28;19913;-82
2023/01/29 01:17:31;;;;;;;;;;;;;;;;;;5070380;28;20057;-82
2023/01/29 01:19:56;;;;;;;;;;;;;;;;;;5073192;28;19912;-82
2023/01/29 01:22:21;;;;;;;;;;;;;;;;;;5071760;28;19923;-82
2023/01/29 01:24:46;;;;;;;;;;;;;;;;;;5090888;28;19916;-83
2023/01/29 01:27:11;;;;;;;;;;;;;;;;;;5058324;28;19920;-83
2023/01/29 01:29:37;;;;;;;;;;;;;;;;;;5068815;28;20298;-82
2023/01/29 01:32:02;;;;;;;;;;;;;;;;;;5097955;28;19951;-83
2023/01/29 01:34:28;;;;;;;;;;;;;;;;;;5073648;28;20024;-84
2023/01/29 01:36:54;;;;;;;;;;;;;;;;;;5065674;28;19962;-81
2023/01/29 01:39:19;;;;;;;;;;;;;;;;;;5085628;28;19920;-82
2023/01/29 01:41:45;;;;;;;;;;;;;;;;;;5086409;28;20383;-81
2023/01/29 01:44:10;;;;;;;;;;;;;;;;;;5090822;28;20439;-82
2023/01/29 01:46:35;;;;;;;;;;;;;;;;;;5073607;28;19969;-82
2023/01/29 01:49:00;;;;;;;;;;;;;;;;;;5090862;28;19926;-82
2023/01/29 01:51:26;;;;;;;;;;;;;;;;;;5072560;28;19916;-82
2023/01/29 01:53:51;;;;;;;;;;;;;;;;;;5063426;28;19912;-82
2023/01/29 01:56:16;;;;;;;;;;;;;;;;;;5070590;28;19916;-82
2023/01/29 01:58:41;;;;;;;;;;;;;;;;;;5069059;28;19916;-83
2023/01/29 02:01:06;;;;;;;;;;;;;;;;;;5089889;28;19970;-83
2023/01/29 02:11:44;;;;;;;;;;;;;;;;;;5088056;28;19958;-82
2023/01/29 02:14:09;;;;;;;;;;;;;;;;;;5069761;28;20330;-82
2023/01/29 02:16:34;;;;;;;;;;;;;;;;;;5090307;28;20292;-82
2023/01/29 02:18:59;;;;;;;;;;;;;;;;;;5085625;28;19931;-82
2023/01/29 02:21:27;;;;;;;;;;;;;;;;;;5062823;28;20254;-82
2023/01/29 02:23:53;;;;;;;;;;;;;;;;;;5061898;28;19916;-82
2023/01/29 02:26:18;;;;;;;;;;;;;;;;;;5066787;28;19920;-82
2023/01/29 02:28:43;;;;;;;;;;;;;;;;;;5089605;28;20011;-82
2023/01/29 02:31:08;;;;;;;;;;;;;;;;;;5070257;28;19928;-82
2023/01/29 02:33:33;;;;;;;;;;;;;;;;;;5071522;28;19916;-82
2023/01/29 02:35:58;;;;;;;;;;;;;;;;;;5064793;28;19924;-81
2023/01/29 02:38:24;;;;;;;;;;;;;;;;;;5065186;28;19936;-82
2023/01/29 02:40:49;;;;;;;;;;;;;;;;;;5067372;28;20403;-81
2023/01/29 02:43:14;;;;;;;;;;;;;;;;;;5088678;28;19951;-81
2023/01/29 02:45:40;;;;;;;;;;;;;;;;;;5072293;28;19921;-82
2023/01/29 02:48:05;;;;;;;;;;;;;;;;;;5069396;28;19912;-83
2023/01/29 02:50:30;;;;;;;;;;;;;;;;;;5089999;28;19963;-83
2023/01/29 02:52:55;;;;;;;;;;;;;;;;;;5068962;28;19919;-84
2023/01/29 02:55:20;;;;;;;;;;;;;;;;;;5086364;28;19912;-84
2023/01/29 02:57:45;;;;;;;;;;;;;;;;;;5069206;28;20299;-82
2023/01/29 03:00:11;;;;;;;;;;;;;;;;;;5066410;28;20287;-84
2023/01/29 03:02:36;;;;;;;;;;;;;;;;;;5087669;28;20260;-84
2023/01/29 03:05:01;;;;;;;;;;;;;;;;;;5091694;28;19919;-83
2023/01/29 03:07:42;;;;;;;;;;;;;;;;;;5086113;28;19923;-83
2023/01/29 03:10:07;;;;;;;;;;;;;;;;;;5083706;28;19916;-82
2023/01/29 03:12:33;;;;;;;;;;;;;;;;;;5065131;28;19919;-82
2023/01/29 03:15:10;;;;;;;;;;;;;;;;;;5090992;28;19912;-82
2023/01/29 03:17:35;;;;;;;;;;;;;;;;;;5066986;28;19916;-80
2023/01/29 03:20:00;;;;;;;;;;;;;;;;;;5062920;28;19912;-81
2023/01/29 03:22:26;;;;;;;;;;;;;;;;;;5068839;28;19920;-81
2023/01/29 03:33:03;;;;;;;;;;;;;;;;;;5070585;28;19919;-81
2023/01/29 03:35:38;;;;;;;;;;;;;;;;;;5049415;28;20384;-80
2023/01/29 03:38:03;;;;;;;;;;;;;;;;;;5042093;28;19913;-81
2023/01/29 03:40:28;;;;;;;;;;;;;;;;;;5051149;28;19928;-80
2023/01/29 03:42:53;;;;;;;;;;;;;;;;;;5052742;28;19944;-82
2023/01/29 03:45:18;;;;;;;;;;;;;;;;;;5044386;28;19920;-82
2023/01/29 03:47:44;;;;;;;;;;;;;;;;;;5067746;28;19923;-82
2023/01/29 03:50:09;;;;;;;;;;;;;;;;;;5064362;28;21323;-82
2023/01/29 03:52:34;;;;;;;;;;;;;;;;;;5067561;28;21556;-83
2023/01/29 03:55:00;;;;;;;;;;;;;;;;;;5048780;28;19966;-82
2023/01/29 03:57:25;;;;;;;;;;;;;;;;;;5038137;28;19909;-83
2023/01/29 03:59:50;;;;;;;;;;;;;;;;;;5046811;28;19919;-82
2023/01/29 04:02:16;;;;;;;;;;;;;;;;;;5068017;28;20249;-82
2023/01/29 04:04:42;;;;;;;;;;;;;;;;;;5054640;28;20065;-82
2023/01/29 04:07:07;;;;;;;;;;;;;;;;;;5048771;28;20384;-82
2023/01/29 04:09:32;;;;;;;;;;;;;;;;;;5063012;28;19923;-81
2023/01/29 04:11:57;;;;;;;;;;;;;;;;;;5057469;28;19916;-82
2023/01/29 04:14:22;;;;;;;;;;;;;;;;;;5068327;28;20376;-81
2023/01/29 04:16:47;;;;;;;;;;;;;;;;;;5054337;28;19917;-82
2023/01/29 04:19:12;;;;;;;;;;;;;;;;;;5040624;28;19912;-81
2023/01/29 04:21:38;;;;;;;;;;;;;;;;;;5049847;28;20359;-81
2023/01/29 04:24:03;;;;;;;;;;;;;;;;;;5065487;28;20288;-82
2023/01/29 04:26:32;;;;;;;;;;;;;;;;;;5055902;28;20281;-81
2023/01/29 04:28:57;;;;;;;;;;;;;;;;;;5057145;28;20023;-82
2023/01/29 04:31:22;;;;;;;;;;;;;;;;;;5059074;28;20004;-82
2023/01/29 04:33:47;;;;;;;;;;;;;;;;;;5064963;28;19919;-81
2023/01/29 04:36:13;;;;;;;;;;;;;;;;;;5066553;28;19912;-81
2023/01/29 04:38:39;;;;;;;;;;;;;;;;;;5059815;28;19927;-82
2023/01/29 04:41:04;;;;;;;;;;;;;;;;;;5065301;28;20352;-82
2023/01/29 04:43:29;;;;;;;;;;;;;;;;;;5067137;28;20015;-83
2023/01/29 04:45:54;;;;;;;;;;;;;;;;;;5062502;28;20252;-83
2023/01/29 04:48:19;;;;;;;;;;;;;;;;;;5063619;28;19912;-83
2023/01/29 04:50:44;;;;;;;;;;;;;;;;;;5067589;28;19912;-83
2023/01/29 04:53:10;;;;;;;;;;;;;;;;;;5064058;28;20003;-82
2023/01/29 04:55:35;;;;;;;;;;;;;;;;;;5064647;28;19974;-83
2023/01/29 04:58:01;;;;;;;;;;;;;;;;;;5066995;28;19955;-82
2023/01/29 05:00:26;;;;;;;;;;;;;;;;;;5066788;28;19917;-83
2023/01/29 05:02:51;;;;;;;;;;;;;;;;;;5067545;28;19915;-83
2023/01/29 05:05:17;;;;;;;;;;;;;;;;;;5056410;28;19924;-82
2023/01/29 05:07:42;;;;;;;;;;;;;;;;;;5064939;28;19995;-82
2023/01/29 05:10:07;;;;;;;;;;;;;;;;;;5062373;28;19928;-82
2023/01/29 05:12:32;;;;;;;;;;;;;;;;;;5061586;28;19939;-82
2023/01/29 05:14:57;;;;;;;;;;;;;;;;;;5069466;28;19917;-82
2023/01/29 05:17:23;;;;;;;;;;;;;;;;;;5072110;28;19989;-83
2023/01/29 05:19:48;;;;;;;;;;;;;;;;;;5070264;28;19916;-81
2023/01/29 05:22:13;;;;;;;;;;;;;;;;;;5071068;28;20380;-82
2023/01/29 05:24:38;;;;;;;;;;;;;;;;;;5068372;28;19924;-82
2023/01/29 05:29:48;;;;;;;;;;;;;;;;;;5070042;28;20507;-82
2023/01/29 05:32:13;;;;;;;;;;;;;;;;;;5056607;28;20431;-81
2023/01/29 05:34:38;;;;;;;;;;;;;;;;;;5058706;28;20352;-82
2023/01/29 05:37:03;;;;;;;;;;;;;;;;;;5062956;28;20308;-82
2023/01/29 05:39:28;;;;;;;;;;;;;;;;;;5062575;28;20407;-82
2023/01/29 05:41:53;;;;;;;;;;;;;;;;;;5067657;28;19912;-83
2023/01/29 05:44:19;;;;;;;;;;;;;;;;;;5060650;28;20368;-83
2023/01/29 05:46:44;;;;;;;;;;;;;;;;;;5069018;28;19920;-83
2023/01/29 05:49:10;;;;;;;;;;;;;;;;;;5069494;28;19920;-82
2023/01/29 05:51:35;;;;;;;;;;;;;;;;;;5065421;28;19917;-82
2023/01/29 05:54:00;;;;;;;;;;;;;;;;;;5068198;28;20291;-82
2023/01/29 05:56:25;;;;;;;;;;;;;;;;;;5062281;28;19912;-82
2023/01/29 05:58:50;;;;;;;;;;;;;;;;;;5057057;28;19920;-82
2023/01/29 06:01:15;;;;;;;;;;;;;;;;;;5067690;28;19913;-83
2023/01/29 06:03:40;;;;;;;;;;;;;;;;;;5064237;28;19913;-82
2023/01/29 06:06:05;;;;;;;;;;;;;;;;;;5063588;28;19919;-83
2023/01/29 06:08:31;;;;;;;;;;;;;;;;;;5062537;28;19920;-83
2023/01/29 06:10:56;;;;;;;;;;;;;;;;;;5062401;28;19931;-83
2023/01/29 06:13:21;;;;;;;;;;;;;;;;;;5067340;28;19974;-83
2023/01/29 06:15:46;;;;;;;;;;;;;;;;;;5068988;28;19916;-82
2023/01/29 06:18:11;;;;;;;;;;;;;;;;;;5063411;28;20386;-83
2023/01/29 06:20:36;;;;;;;;;;;;;;;;;;5064395;28;20392;-84
2023/01/29 06:23:02;;;;;;;;;;;;;;;;;;5057507;28;19913;-80
2023/01/29 06:25:27;;;;;;;;;;;;;;;;;;5064364;28;19921;-81
2023/01/29 06:27:52;;;;;;;;;;;;;;;;;;5079645;28;19920;-81
2023/01/29 06:30:17;;;;;;;;;;;;;;;;;;5080829;28;19920;-80
2023/01/29 06:32:42;;;;;;;;;;;;;;;;;;5064252;28;19919;-81
2023/01/29 06:35:09;;;;;;;;;;;;;;;;;;5066124;28;20057;-80
2023/01/29 06:37:34;;;;;;;;;;;;;;;;;;5061854;28;20371;-82
2023/01/29 06:39:59;;;;;;;;;;;;;;;;;;5083428;28;19940;-83
2023/01/29 06:42:26;;;;;;;;;;;;;;;;;;5067963;28;19919;-83
2023/01/29 06:44:51;;;;;;;;;;;;;;;;;;5069394;28;19927;-78
2023/01/29 06:47:16;;;;;;;;;;;;;;;;;;5083638;28;19920;-79
2023/01/29 06:49:43;;;;;;;;;;;;;;;;;;5063643;28;20192;-79
2023/01/29 06:52:08;;;;;;;;;;;;;;;;;;5072626;28;19916;-79
2023/01/29 06:54:33;;;;;;;;;;;;;;;;;;5070799;28;19919;-79
2023/01/29 06:56:58;;;;;;;;;;;;;;;;;;5071315;28;20023;-80
2023/01/29 06:59:24;;;;;;;;;;;;;;;;;;5071937;28;19977;-80
2023/01/29 07:01:49;;;;;;;;;;;;;;;;;;5091282;28;19912;-81
2023/01/29 07:04:14;;;;;;;;;;;;;;;;;;5085714;28;19947;-83
2023/01/29 07:06:39;;;;;;;;;;;;;;;;;;5070024;28;19928;-81
2023/01/29 07:09:04;;;;;;;;;;;;;;;;;;5075040;28;20340;-81
2023/01/29 07:11:29;;;;;;;;;;;;;;;;;;5066092;28;20360;-81
2023/01/29 07:13:54;;;;;;;;;;;;;;;;;;5064830;28;19920;-81
2023/01/29 07:16:20;;;;;;;;;;;;;;;;;;5084552;28;19912;-82
2023/01/29 07:18:45;;;;;;;;;;;;;;;;;;5063226;28;19966;-80
2023/01/29 07:21:10;;;;;;;;;;;;;;;;;;5063881;28;20293;-79
2023/01/29 07:23:35;;;;;;;;;;;;;;;;;;5084970;28;20006;-80
2023/01/29 07:26:01;;;;;;;;;;;;;;;;;;5060990;28;20429;-80
2023/01/29 07:28:26;;;;;;;;;;;;;;;;;;5083135;28;19916;-83
2023/01/29 07:30:51;;;;;;;;;;;;;;;;;;5063198;28;20019;-80
2023/01/29 07:33:16;;;;;;;;;;;;;;;;;;5082611;28;19970;-78
2023/01/29 07:35:41;;;;;;;;;;;;;;;;;;5082124;28;19912;-81
2023/01/29 07:38:06;;;;;;;;;;;;;;;;;;5078231;28;19951;-83
2023/01/29 07:40:32;;;;;;;;;;;;;;;;;;5083272;28;19912;-79
2023/01/29 07:42:57;;;;;;;;;;;;;;;;;;5065392;28;21575;-81
2023/01/29 07:45:22;;;;;;;;;;;;;;;;;;5059440;28;19920;-81
2023/01/29 07:47:47;;;;;;;;;;;;;;;;;;5068448;28;19920;-82
2023/01/29 07:50:12;;;;;;;;;;;;;;;;;;5065510;28;20002;-82
2023/01/29 07:52:37;;;;;;;;;;;;;;;;;;5062056;28;19916;-82
2023/01/29 07:55:03;;;;;;;;;;;;;;;;;;5064590;28;19916;-80
2023/01/29 07:57:29;;;;;;;;;;;;;;;;;;5081928;28;19920;-81
2023/01/29 07:59:54;;;;;;;;;;;;;;;;;;5064480;28;20444;-82
2023/01/29 08:02:19;;;;;;;;;;;;;;;;;;5063842;28;19912;-81
2023/01/29 08:04:44;;;;;;;;;;;;;;;;;;5069004;28;19957;-81
2023/01/29 08:07:10;;;;;;;;;;;;;;;;;;5085537;28;19916;-80
2023/01/29 08:09:35;;;;;;;;;;;;;;;;;;5063467;28;20406;-80
2023/01/29 08:12:00;;;;;;;;;;;;;;;;;;5087554;28;19912;-80
2023/01/29 08:14:25;;;;;;;;;;;;;;;;;;5069489;28;19923;-80
2023/01/29 08:16:50;;;;;;;;;;;;;;;;;;5084745;28;19916;-79
2023/01/29 08:19:15;;;;;;;;;;;;;;;;;;5069429;28;20015;-79
2023/01/29 08:21:40;;;;;;;;;;;;;;;;;;5061739;28;19913;-81
2023/01/29 08:24:06;;;;;;;;;;;;;;;;;;5065557;28;19916;-80
2023/01/29 08:26:31;;;;;;;;;;;;;;;;;;5077111;28;20356;-81
2023/01/29 08:28:56;;;;;;;;;;;;;;;;;;5085857;28;19916;-79
2023/01/29 08:31:21;;;;;;;;;;;;;;;;;;5068998;28;19920;-78
2023/01/29 08:33:46;;;;;;;;;;;;;;;;;;5082077;28;19921;-80
2023/01/29 08:36:11;;;;;;;;;;;;;;;;;;5064767;28;20007;-79
2023/01/29 08:38:37;;;;;;;;;;;;;;;;;;5062498;28;20400;-79
2023/01/29 08:41:02;;;;;;;;;;;;;;;;;;5062106;28;19920;-82
2023/01/29 08:43:27;;;;;;;;;;;;;;;;;;5069114;28;20351;-81
2023/01/29 08:45:52;;;;;;;;;;;;;;;;;;5082528;28;19919;-84
2023/01/29 08:48:17;;;;;;;;;;;;;;;;;;5076078;28;20273;-85
2023/01/29 08:50:43;;;;;;;;;;;;;;;;;;5086055;28;19966;-80
2023/01/29 08:53:08;;;;;;;;;;;;;;;;;;5074922;28;19908;-81
2023/01/29 08:55:33;;;;;;;;;;;;;;;;;;5071489;28;20371;-80
2023/01/29 08:57:58;;;;;;;;;;;;;;;;;;5092606;28;19908;-80
2023/01/29 09:00:23;;;;;;;;;;;;;;;;;;5068304;28;19935;-80
2023/01/29 09:02:48;;;;;;;;;;;;;;;;;;5086912;28;19995;-83
2023/01/29 09:05:14;;;;;;;;;;;;;;;;;;5082702;28;20369;-80
2023/01/29 09:07:39;;;;;;;;;;;;;;;;;;5069287;28;19935;-82
2023/01/29 09:10:07;;;;;;;;;;;;;;;;;;5085930;28;20466;-82
2023/01/29 09:12:32;;;;;;;;;;;;;;;;;;5084861;28;19920;-81
2023/01/29 09:14:57;;;;;;;;;;;;;;;;;;5088944;28;20302;-80
2023/01/29 09:17:23;;;;;;;;;;;;;;;;;;5071870;28;19912;-80
2023/01/29 09:19:48;;;;;;;;;;;;;;;;;;5067177;28;20327;-79
2023/01/29 09:22:15;;;;;;;;;;;;;;;;;;5089232;28;19912;-80
2023/01/29 09:24:43;;;;;;;;;;;;;;;;;;5073888;28;20007;-81
2023/01/29 09:27:09;;;;;;;;;;;;;;;;;;5067332;28;20004;-80
2023/01/29 09:29:35;;;;;;;;;;;;;;;;;;5093101;28;20366;-81
2023/01/29 09:32:00;;;;;;;;;;;;;;;;;;5079495;28;19916;-80
2023/01/29 09:34:25;;;;;;;;;;;;;;;;;;5091276;28;19911;-81
2023/01/29 09:36:50;;;;;;;;;;;;;;;;;;5093166;28;20387;-81
2023/01/29 09:39:15;;;;;;;;;;;;;;;;;;5066894;28;19973;-80
2023/01/29 09:41:40;;;;;;;;;;;;;;;;;;5091559;28;19912;-80
2023/01/29 09:44:05;;;;;;;;;;;;;;;;;;5071425;28;20442;-82
2023/01/29 09:46:30;;;;;;;;;;;;;;;;;;5092022;28;19912;-82
2023/01/29 09:48:56;;;;;;;;;;;;;;;;;;5091063;28;20030;-83
2023/01/29 09:51:21;;;;;;;;;;;;;;;;;;5089371;28;19919;-83
2023/01/29 09:53:46;;;;;;;;;;;;;;;;;;5085401;28;20395;-81
2023/01/29 09:56:11;;;;;;;;;;;;;;;;;;5088804;28;19912;-81
2023/01/29 09:58:36;;;;;;;;;;;;;;;;;;5071910;28;19921;-81
2023/01/29 10:01:01;;;;;;;;;;;;;;;;;;5082885;28;20292;-80
2023/01/29 10:03:27;;;;;;;;;;;;;;;;;;5075119;28;19959;-80
2023/01/29 10:05:52;;;;;;;;;;;;;;;;;;5075977;28;20280;-82
2023/01/29 10:08:17;;;;;;;;;;;;;;;;;;5069584;28;20001;-82
2023/01/29 10:10:42;;;;;;;;;;;;;;;;;;5064168;28;19916;-83
2023/01/29 10:13:07;;;;;;;;;;;;;;;;;;5067663;28;20315;-83
2023/01/29 10:15:32;;;;;;;;;;;;;;;;;;5074363;28;20276;-81
2023/01/29 10:17:57;;;;;;;;;;;;;;;;;;5091943;28;19912;-81
2023/01/29 10:20:23;;;;;;;;;;;;;;;;;;5091659;28;19918;-83
2023/01/29 10:22:48;;;;;;;;;;;;;;;;;;5062076;28;20004;-81
2023/01/29 10:25:13;;;;;;;;;;;;;;;;;;5056774;28;20011;-79
2023/01/29 10:27:38;;;;;;;;;;;;;;;;;;5070862;28;19916;-78
2023/01/29 10:30:04;;;;;;;;;;;;;;;;;;5072739;28;19924;-80
2023/01/29 10:32:29;;;;;;;;;;;;;;;;;;5083570;28;19908;-81
2023/01/29 10:34:54;;;;;;;;;;;;;;;;;;5076278;28;19912;-80
2023/01/29 10:37:22;;;;;;;;;;;;;;;;;;5070059;28;19920;-80
2023/01/29 10:39:47;;;;;;;;;;;;;;;;;;5071344;28;20391;-81
2023/01/29 10:42:12;;;;;;;;;;;;;;;;;;5089603;28;19912;-80
2023/01/29 10:44:37;;;;;;;;;;;;;;;;;;5068028;28;19912;-84
2023/01/29 10:47:02;;;;;;;;;;;;;;;;;;5091159;28;20281;-80
2023/01/29 10:49:27;;;;;;;;;;;;;;;;;;5082953;28;19983;-81
2023/01/29 10:51:52;;;;;;;;;;;;;;;;;;5090970;28;19912;-81
2023/01/29 10:54:18;;;;;;;;;;;;;;;;;;5092101;28;19919;-82
2023/01/29 10:56:43;;;;;;;;;;;;;;;;;;5089850;28;19916;-78
2023/01/29 10:59:08;;;;;;;;;;;;;;;;;;5063343;28;19926;-80
2023/01/29 11:01:33;;;;;;;;;;;;;;;;;;5070370;28;19977;-81
2023/01/29 11:03:58;;;;;;;;;;;;;;;;;;5060105;28;19913;-80
2023/01/29 11:06:24;;;;;;;;;;;;;;;;;;5087699;28;19912;-80
2023/01/29 11:08:49;;;;;;;;;;;;;;;;;;5065932;28;19955;-82
2023/01/29 11:11:14;;;;;;;;;;;;;;;;;;5069327;28;19912;-80
2023/01/29 11:13:39;;;;;;;;;;;;;;;;;;5091283;28;19985;-88
2023/01/29 11:16:04;;;;;;;;;;;;;;;;;;5091563;28;19916;-80
2023/01/29 11:18:29;;;;;;;;;;;;;;;;;;5067140;28;20075;-85
2023/01/29 11:20:55;;;;;;;;;;;;;;;;;;5083967;28;19912;-83
2023/01/29 11:23:20;;;;;;;;;;;;;;;;;;5091100;28;20424;-82
2023/01/29 11:25:45;;;;;;;;;;;;;;;;;;5065268;28;20281;-84
2023/01/29 11:28:12;;;;;;;;;;;;;;;;;;5072782;28;19961;-84
2023/01/29 11:30:38;;;;;;;;;;;;;;;;;;5065175;28;19917;-84
2023/01/29 11:33:03;;;;;;;;;;;;;;;;;;5070208;28;19919;-86
2023/01/29 11:35:29;;;;;;;;;;;;;;;;;;5064990;28;19919;-87
2023/01/29 11:37:54;;;;;;;;;;;;;;;;;;5066785;28;19970;-85
2023/01/29 11:40:21;;;;;;;;;;;;;;;;;;5067783;28;20335;-81
2023/01/29 11:42:46;;;;;;;;;;;;;;;;;;5087557;28;19932;-84
2023/01/29 11:45:11;;;;;;;;;;;;;;;;;;5065531;28;19935;-85
2023/01/29 11:47:39;;;;;;;;;;;;;;;;;;5088913;28;19924;-85
2023/01/29 11:50:04;;;;;;;;;;;;;;;;;;5070043;28;19916;-84
2023/01/29 11:52:30;;;;;;;;;;;;;;;;;;5064685;28;20364;-87
2023/01/29 11:54:55;;;;;;;;;;;;;;;;;;5066895;28;19922;-85
2023/01/29 11:57:20;;;;;;;;;;;;;;;;;;5084938;28;20321;-83
2023/01/29 11:59:47;;;;;;;;;;;;;;;;;;5066004;28;20018;-86
2023/01/29 12:02:12;;;;;;;;;;;;;;;;;;5086401;28;20007;-82
2023/01/29 12:04:38;;;;;;;;;;;;;;;;;;5072397;28;19919;-82
2023/01/29 12:07:03;;;;;;;;;;;;;;;;;;5088923;28;20383;-82
2023/01/29 12:09:28;;;;;;;;;;;;;;;;;;5065420;28;19974;-83
2023/01/29 12:11:53;;;;;;;;;;;;;;;;;;5067458;28;19920;-83
2023/01/29 12:14:18;;;;;;;;;;;;;;;;;;5062041;28;19912;-89
2023/01/29 12:16:43;;;;;;;;;;;;;;;;;;5062024;28;19912;-88
2023/01/29 12:19:09;;;;;;;;;;;;;;;;;;5061382;28;19912;-88
2023/01/29 12:21:34;;;;;;;;;;;;;;;;;;5072456;28;20008;-83
2023/01/29 12:23:59;;;;;;;;;;;;;;;;;;5091693;28;19912;-83
2023/01/29 12:26:24;;;;;;;;;;;;;;;;;;5074344;28;20025;-85
2023/01/29 12:28:49;;;;;;;;;;;;;;;;;;5069619;28;19927;-81
2023/01/29 12:31:14;;;;;;;;;;;;;;;;;;5089924;28;19927;-82
2023/01/29 12:33:40;;;;;;;;;;;;;;;;;;5062910;28;19954;-81
2023/01/29 12:36:05;;;;;;;;;;;;;;;;;;5095318;28;19912;-81
2023/01/29 12:38:30;;;;;;;;;;;;;;;;;;5071297;28;19912;-83
2023/01/29 12:40:55;;;;;;;;;;;;;;;;;;5068355;28;20115;-84
2023/01/29 12:43:20;;;;;;;;;;;;;;;;;;5084052;28;20280;-83
2023/01/29 12:45:45;;;;;;;;;;;;;;;;;;5069842;28;19913;-82
2023/01/29 12:48:11;;;;;;;;;;;;;;;;;;5068842;28;19919;-84
2023/01/29 12:50:36;;;;;;;;;;;;;;;;;;5082465;28;20383;-84
2023/01/29 12:53:01;;;;;;;;;;;;;;;;;;5067649;28;20390;-83
2023/01/29 12:55:26;;;;;;;;;;;;;;;;;;5065211;28;20428;-84
2023/01/29 12:57:51;;;;;;;;;;;;;;;;;;5082522;28;19970;-84
2023/01/29 13:00:16;;;;;;;;;;;;;;;;;;5089320;28;19912;-84
2023/01/29 13:02:41;;;;;;;;;;;;;;;;;;5067276;28;19936;-84
2023/01/29 13:05:06;;;;;;;;;;;;;;;;;;5067552;28;20433;-82
2023/01/29 13:07:32;;;;;;;;;;;;;;;;;;5059876;28;21105;-84
2023/01/29 13:09:57;;;;;;;;;;;;;;;;;;5063372;28;19920;-78
2023/01/29 13:12:22;;;;;;;;;;;;;;;;;;5066912;28;19955;-78
2023/01/29 13:14:47;;;;;;;;;;;;;;;;;;5088233;28;19965;-81
2023/01/29 13:17:13;;;;;;;;;;;;;;;;;;5081096;28;19912;-83
2023/01/29 13:19:38;;;;;;;;;;;;;;;;;;5082699;28;19944;-81
2023/01/29 13:22:04;;;;;;;;;;;;;;;;;;5068922;28;20011;-82
2023/01/29 13:24:29;;;;;;;;;;;;;;;;;;5082815;28;19916;-78
2023/01/29 13:26:54;;;;;;;;;;;;;;;;;;5069201;28;19932;-79
2023/01/29 13:29:19;;;;;;;;;;;;;;;;;;5083306;28;19920;-80
2023/01/29 13:31:45;;;;;;;;;;;;;;;;;;5066606;28;19920;-82
2023/01/29 13:34:10;;;;;;;;;;;;;;;;;;5080712;28;19955;-82
2023/01/29 13:36:35;;;;;;;;;;;;;;;;;;5082832;28;19942;-82
2023/01/29 13:39:00;;;;;;;;;;;;;;;;;;5078323;28;20006;-82
2023/01/29 13:41:25;;;;;;;;;;;;;;;;;;5066609;28;20081;-84
2023/01/29 13:43:50;;;;;;;;;;;;;;;;;;5075255;28;19908;-82
2023/01/29 13:46:16;;;;;;;;;;;;;;;;;;5091343;28;19923;-82
2023/01/29 13:48:41;;;;;;;;;;;;;;;;;;5072262;28;19912;-84
2023/01/29 13:51:06;;;;;;;;;;;;;;;;;;5091894;28;19924;-83
2023/01/29 13:53:32;;;;;;;;;;;;;;;;;;5068862;28;19912;-85
2023/01/29 13:55:57;;;;;;;;;;;;;;;;;;5072375;28;19969;-83
2023/01/29 13:58:22;;;;;;;;;;;;;;;;;;5088069;28;19934;-82
2023/01/29 14:00:47;;;;;;;;;;;;;;;;;;5071047;28;20008;-84
2023/01/29 14:03:12;;;;;;;;;;;;;;;;;;5076748;28;19958;-84
2023/01/29 14:05:37;;;;;;;;;;;;;;;;;;5073442;28;19912;-84
2023/01/29 14:08:03;;;;;;;;;;;;;;;;;;5067740;28;20011;-83
2023/01/29 14:10:28;;;;;;;;;;;;;;;;;;5063374;28;20014;-82
2023/01/29 14:12:53;;;;;;;;;;;;;;;;;;5070729;28;19916;-83
2023/01/29 14:15:18;;;;;;;;;;;;;;;;;;5070265;28;19927;-83
2023/01/29 14:17:43;;;;;;;;;;;;;;;;;;5086005;28;19916;-82
2023/01/29 14:20:08;;;;;;;;;;;;;;;;;;5069964;28;19912;-83
2023/01/29 14:22:34;;;;;;;;;;;;;;;;;;5088921;28;19942;-82
2023/01/29 14:24:59;;;;;;;;;;;;;;;;;;5073945;28;19916;-82
2023/01/29 14:27:24;;;;;;;;;;;;;;;;;;5094289;28;19920;-83
2023/01/29 14:29:53;;;;;;;;;;;;;;;;;;5069208;28;19955;-82
2023/01/29 14:32:18;;;;;;;;;;;;;;;;;;5067795;28;19916;-83
2023/01/29 14:34:43;;;;;;;;;;;;;;;;;;5071227;28;20323;-84
2023/01/29 14:37:09;;;;;;;;;;;;;;;;;;5067990;28;19912;-86
2023/01/29 14:39:34;;;;;;;;;;;;;;;;;;5067341;28;19947;-85
2023/01/29 14:41:59;;;;;;;;;;;;;;;;;;5073454;28;19915;-83
2023/01/29 14:44:24;;;;;;;;;;;;;;;;;;5067638;28;19951;-83
2023/01/29 14:46:49;;;;;;;;;;;;;;;;;;5070775;28;19919;-85
2023/01/29 14:49:14;;;;;;;;;;;;;;;;;;5067684;28;20343;-85
2023/01/29 14:51:39;;;;;;;;;;;;;;;;;;5065405;28;19919;-83
2023/01/29 14:54:14;;;;;;;;;;;;;;;;;;5079090;28;19908;-90
2023/01/29 14:56:39;;;;;;;;;;;;;;;;;;5062830;28;20287;-84
2023/01/29 14:59:04;;;;;;;;;;;;;;;;;;5087102;28;19916;-84
2023/01/29 15:01:29;;;;;;;;;;;;;;;;;;5067241;28;20296;-85
2023/01/29 15:03:54;;;;;;;;;;;;;;;;;;5060352;28;19912;-86
2023/01/29 15:06:20;;;;;;;;;;;;;;;;;;5087790;28;19916;-86
2023/01/29 15:08:45;;;;;;;;;;;;;;;;;;5083745;28;19966;-86
2023/01/29 15:13:54;;;;;;;;;;;;;;;;;;5080953;28;20053;-86
2023/01/29 15:16:19;;;;;;;;;;;;;;;;;;5071829;28;19998;-85
2023/01/29 15:18:44;;;;;;;;;;;;;;;;;;5067267;28;19916;-85
2023/01/29 15:21:13;;;;;;;;;;;;;;;;;;5066899;28;19918;-87
2023/01/29 15:23:39;;;;;;;;;;;;;;;;;;5072539;28;20360;-85
2023/01/29 15:26:04;;;;;;;;;;;;;;;;;;5064695;28;20029;-84
2023/01/29 15:28:30;;;;;;;;;;;;;;;;;;5073934;28;20023;-86
2023/01/29 15:30:57;;;;;;;;;;;;;;;;;;5068920;28;21810;-83
2023/01/29 15:33:23;;;;;;;;;;;;;;;;;;5089460;28;19920;-85
2023/01/29 15:35:48;;;;;;;;;;;;;;;;;;5087861;28;19912;-81
2023/01/29 15:38:25;;;;;;;;;;;;;;;;;;;;;
2023/01/29 15:40:50;;;;;;;;;;;;;;;;;;5084705;28;20378;-87
2023/01/29 15:43:15;;;;;;;;;;;;;;;;;;5067206;28;20364;-88
2023/01/29 15:45:40;;;;;;;;;;;;;;;;;;5088913;28;19916;-90
2023/01/29 15:48:06;;;;;;;;;;;;;;;;;;5058784;28;20275;-86
2023/01/29 15:50:34;;;;;;;;;;;;;;;;;;5067793;28;19961;-91
2023/01/29 15:52:59;;;;;;;;;;;;;;;;;;5073851;28;19914;-89
2023/01/29 15:55:30;;;;;;;;;;;;;;;;;;5069528;28;19943;-91
2023/01/29 15:57:56;;;;;;;;;;;;;;;;;;5074726;28;19957;-88
2023/01/29 16:00:29;;;;;;;;;;;;;;;;;;5070461;28;19908;-87
2023/01/29 16:02:54;;;;;;;;;;;;;;;;;;5061527;28;19969;-88
2023/01/29 16:05:20;;;;;;;;;;;;;;;;;;5065999;28;19912;-87
2023/01/29 16:07:46;;;;;;;;;;;;;;;;;;5064873;28;19957;-87
2023/01/29 16:10:14;;;;;;;;;;;;;;;;;;5066520;28;19915;-87
2023/01/29 16:12:39;;;;;;;;;;;;;;;;;;5072190;28;20291;-89
2023/01/29 16:15:04;;;;;;;;;;;;;;;;;;5090316;28;19924;-88
2023/01/29 16:17:34;;;;;;;;;;;;;;;;;;5069734;28;19950;-89
2023/01/29 16:19:59;;;;;;;;;;;;;;;;;;5059765;28;19913;-88
2023/01/29 16:22:24;;;;;;;;;;;;;;;;;;5061117;28;19919;-90
2023/01/29 16:24:51;;;;;;;;;;;;;;;;;;5067232;28;19919;-91
2023/01/29 16:27:17;;;;;;;;;;;;;;;;;;5061830;28;19975;-87
2023/01/29 16:29:42;;;;;;;;;;;;;;;;;;5088741;28;19924;-89
2023/01/29 16:32:07;;;;;;;;;;;;;;;;;;5070655;28;19916;-88
2023/01/29 16:34:32;;;;;;;;;;;;;;;;;;5072076;28;20360;-89
2023/01/29 16:36:57;;;;;;;;;;;;;;;;;;5061270;28;20010;-89
2023/01/29 16:39:22;;;;;;;;;;;;;;;;;;5080807;28;19915;-90
2023/01/29 16:41:48;;;;;;;;;;;;;;;;;;5082145;28;19923;-89
2023/01/29 16:44:13;;;;;;;;;;;;;;;;;;5073525;28;19908;-86
2023/01/29 16:46:38;;;;;;;;;;;;;;;;;;5063571;28;19916;-89
2023/01/29 16:49:03;;;;;;;;;;;;;;;;;;5063956;28;19971;-88
2023/01/29 16:51:28;;;;;;;;;;;;;;;;;;5065771;28;20360;-88
2023/01/29 16:53:53;;;;;;;;;;;;;;;;;;5071681;28;19920;-86
2023/01/29 16:56:19;;;;;;;;;;;;;;;;;;5068859;28;19912;-86
2023/01/29 16:58:44;;;;;;;;;;;;;;;;;;5071546;28;19919;-86
2023/01/29 17:01:09;;;;;;;;;;;;;;;;;;5088978;28;19912;-86
2023/01/29 17:03:35;;;;;;;;;;;;;;;;;;5083079;28;19912;-83